CST,Max TemperatureF,Mean TemperatureF,Min TemperatureF,Max Dew PointF,MeanDew PointF,Min DewpointF,Max Humidity, Mean Humidity, Min Humidity, Max Sea Level PressureIn, Mean Sea Level PressureIn, Min Sea Level PressureIn, Max VisibilityMiles, Mean VisibilityMiles, Min VisibilityMiles, Max Wind SpeedMPH, Mean Wind SpeedMPH, Max Gust SpeedMPH,PrecipitationIn, CloudCover, Events, WindDirDegrees
2013-12-1,61,46,31,33,27,20,82,51,20,30.12,30.03,29.90,10,10,10,12,6,14,0.00,0,,287
2013-12-2,66,49,32,30,26,22,69,45,20,29.87,29.73,29.56,10,10,10,18,10,21,0.00,0,,247
2013-12-3,69,52,35,26,20,14,70,42,13,29.59,29.49,29.41,10,10,10,30,12,39,0.00,0,,256
2013-12-4,46,32,18,29,18,1,85,58,31,30.13,29.76,29.55,10,10,6,26,18,32,0.00,5,,24
2013-12-5,18,13,8,7,5,1,83,66,49,30.30,30.18,30.07,10,6,1,26,11,32,T,8,Snow,38
2013-12-6,17,11,5,9,5,2,88,78,67,30.54,30.32,30.14,10,6,2,15,8,18,T,7,Snow,55
2013-12-7,18,13,8,14,6,1,80,74,67,30.53,30.31,29.93,10,8,2,26,14,30,T,8,Snow,158
2013-12-8,45,31,16,24,17,7,100,61,22,30.14,29.92,29.77,10,10,7,33,16,43,0.00,4,,238
2013-12-9,25,17,8,11,8,4,83,65,46,30.40,30.26,30.11,10,9,7,13,7,15,0.00,4,,43
2013-12-10,53,28,3,15,3,-8,86,48,9,30.41,30.22,30.01,10,10,7,33,13,40,0.00,0,,230
2013-12-11,38,29,19,17,14,10,74,53,32,30.59,30.47,30.21,10,10,10,23,11,29,0.00,0,,324
2013-12-12,54,34,13,29,16,9,84,52,20,30.51,30.28,29.97,10,10,10,26,12,31,0.00,0,,206
2013-12-13,59,42,24,33,22,9,100,59,18,29.99,29.84,29.68,10,10,5,28,11,33,0.00,0,,275
2013-12-14,48,36,23,25,19,14,68,47,26,30.33,30.23,30.00,10,10,10,31,14,37,0.00,0,,332
2013-12-15,60,39,18,20,15,12,84,50,15,30.27,30.21,30.14,10,10,7,14,7,18,0.00,0,,282
2013-12-16,67,44,21,18,15,12,77,45,12,30.23,30.16,30.10,10,10,8,17,7,19,0.00,0,,302
2013-12-17,61,45,28,18,17,16,63,40,17,30.37,30.28,30.19,10,10,10,18,10,22,0.00,0,,331
2013-12-18,67,45,22,21,19,15,77,46,15,30.19,29.94,29.70,10,10,10,24,12,29,0.00,0,,212
2013-12-19,70,52,33,26,19,16,52,33,13,29.78,29.62,29.47,10,10,10,26,11,32,0.00,0,,233
2013-12-20,36,31,26,26,21,19,85,72,59,29.91,29.81,29.69,10,9,6,30,10,34,0.00,4,,78
2013-12-21,31,22,12,20,18,11,88,73,58,29.93,29.65,29.55,10,6,0,15,8,17,0.21,7,Fog-Snow,25
2013-12-22,35,23,10,22,15,8,92,74,56,30.31,30.19,29.96,10,10,8,12,8,14,0.00,2,,259
2013-12-23,27,18,9,20,13,6,92,83,73,30.54,30.35,30.18,10,4,0,21,9,25,0.00,2,Fog,230
2013-12-24,48,29,9,32,22,5,92,75,57,30.42,30.21,30.03,10,9,5,37,11,45,0.00,1,,198
2013-12-25,45,35,24,31,25,21,89,65,41,30.49,30.39,30.28,10,10,10,17,8,21,0.00,1,,354
2013-12-26,49,35,20,31,24,17,92,66,39,30.40,30.32,30.24,10,10,10,15,8,18,0.00,0,,235
2013-12-27,53,39,25,27,22,17,85,56,27,30.40,30.32,30.20,10,10,10,14,8,16,0.00,0,,251
2013-12-28,52,36,20,28,23,16,84,60,35,30.18,29.96,29.79,10,10,10,32,10,42,0.00,0,,205
2013-12-29,36,26,16,23,14,10,80,62,43,30.34,30.22,29.99,10,10,10,40,20,47,0.00,3,,17
2013-12-30,51,34,16,21,16,12,84,54,24,30.39,30.25,30.11,10,10,9,29,12,35,0.00,0,,259
2013-12-31,57,40,22,22,19,17,84,53,21,30.32,30.12,29.94,10,10,10,25,11,32,0.00,0,,214